Time;durP1;ratioP1;P1;durP2;ratioP2;P2;SDS_P1;SDS_P2;PMS_P1;PMS_P2;Temp;Humidity;BMP_temperature;BMP_pressure;BME280_temperature;BME280_humidity;BME280_pressure;Samples;Min_cycle;Max_cycle;Signal;HPM_P1;HPM_P2
2022/04/30 00:07:31;;;;;;;;;;;;;;;;;;5091003;27;19923;-69
2022/04/30 00:09:57;;;;;;;;;;;;;;;;;;5091252;28;19975;-69
2022/04/30 00:12:25;;;;;;;;;;;;;;;;;;5091249;28;19915;-69
2022/04/30 00:14:51;;;;;;;;;;;;;;;;;;5090674;28;19912;-69
2022/04/30 00:17:17;;;;;;;;;;;;;;;;;;5089790;28;19916;-69
2022/04/30 00:19:43;;;;;;;;;;;;;;;;;;5091062;28;20277;-69
2022/04/30 00:22:08;;;;;;;;;;;;;;;;;;5091494;28;19916;-69
2022/04/30 00:24:35;;;;;;;;;;;;;;;;;;5091029;28;19908;-69
2022/04/30 00:28:06;;;;;;;;;;;;;;;;;;5091173;27;19917;-68
2022/04/30 00:30:32;;;;;;;;;;;;;;;;;;5091336;28;19951;-68
2022/04/30 00:35:30;;;;;;;;;;;;;;;;;;5091050;27;19922;-69
2022/04/30 00:37:56;;;;;;;;;;;;;;;;;;5091627;28;19912;-68
2022/04/30 00:40:22;;;;;;;;;;;;;;;;;;5091189;28;19916;-68
2022/04/30 00:42:48;;;;;;;;;;;;;;;;;;5090778;28;19909;-68
2022/04/30 00:51:45;;;;;;;;;;;;;;;;;;5092176;27;19916;-68
2022/04/30 00:54:11;;;;;;;;;;;;;;;;;;5091296;28;20329;-68
2022/04/30 00:56:53;;;;;;;;;;;;;;;;;;5090939;27;20330;-69
2022/04/30 00:59:47;;;;;;;;;;;;;;;;;;5091437;27;19916;-68
2022/04/30 01:02:13;;;;;;;;;;;;;;;;;;5090751;28;19939;-68
2022/04/30 01:04:39;;;;;;;;;;;;;;;;;;5091058;28;19916;-67
2022/04/30 01:07:05;;;;;;;;;;;;;;;;;;5091095;28;20408;-68
2022/04/30 01:09:56;;;;;;;;;;;;;;;;;;5091247;27;20406;-69
2022/04/30 01:12:22;;;;;;;;;;;;;;;;;;5091324;28;19912;-69
2022/04/30 01:17:37;;;;;;;;;;;;;;;;;;5094255;27;2246535;-69
2022/04/30 01:20:04;;;;;;;;;;;;;;;;;;5173556;27;19911;-68
2022/04/30 01:22:30;;;;;;;;;;;;;;;;;;5174024;27;20308;-68
2022/04/30 01:24:56;;;;;;;;;;;;;;;;;;5173137;27;19907;-67
2022/04/30 01:27:25;;;;;;;;;;;;;;;;;;5173491;27;19903;-68
2022/04/30 01:30:48;;;;;;;;;;;;;;;;;;5091334;27;19917;-68
2022/04/30 01:43:33;;;;;;;;;;;;;;;;;;5091963;27;19923;-68
2022/04/30 01:45:59;;;;;;;;;;;;;;;;;;5090827;28;20012;-69
2022/04/30 01:48:25;;;;;;;;;;;;;;;;;;5091188;28;20384;-69
2022/04/30 01:50:52;;;;;;;;;;;;;;;;;;5091365;28;19916;-69
2022/04/30 01:53:18;;;;;;;;;;;;;;;;;;5090734;28;19962;-69
2022/04/30 01:55:44;;;;;;;;;;;;;;;;;;5091360;28;19908;-69
2022/04/30 02:02:14;;;;;;;;;;;;;;;;;;5091978;27;19923;-68
2022/04/30 02:06:52;;;;;;;;;;;;;;;;;;5070924;28;19917;-69
2022/04/30 02:09:18;;;;;;;;;;;;;;;;;;5071100;28;20007;-69
2022/04/30 02:11:44;;;;;;;;;;;;;;;;;;5070973;28;19962;-68
2022/04/30 02:16:26;;;;;;;;;;;;;;;;;;5091563;27;19923;-69
2022/04/30 02:20:33;;;;;;;;;;;;;;;;;;5152835;27;20345;-69
2022/04/30 02:23:00;;;;;;;;;;;;;;;;;;5153263;27;19922;-69
2022/04/30 02:25:27;;;;;;;;;;;;;;;;;;5152766;27;19912;-68
2022/04/30 02:27:53;;;;;;;;;;;;;;;;;;5152366;27;19907;-68
2022/04/30 02:34:49;;;;;;;;;;;;;;;;;;5091175;27;20384;-69
2022/04/30 02:37:15;;;;;;;;;;;;;;;;;;5091322;28;19919;-68
2022/04/30 02:39:43;;;;;;;;;;;;;;;;;;5091173;28;20252;-68
2022/04/30 02:42:10;;;;;;;;;;;;;;;;;;5090870;28;19915;-68
2022/04/30 02:54:08;;;;;;;;;;;;;;;;;;5091413;27;19912;-68
2022/04/30 02:56:34;;;;;;;;;;;;;;;;;;5090863;28;20349;-68
2022/04/30 02:59:58;;;;;;;;;;;;;;;;;;5091540;27;19912;-68
2022/04/30 03:02:24;;;;;;;;;;;;;;;;;;5090929;28;19918;-69
2022/04/30 03:04:53;;;;;;;;;;;;;;;;;;5090016;28;20374;-69
2022/04/30 03:14:42;;;;;;;;;;;;;;;;;;5091646;27;20303;-68
2022/04/30 03:22:38;;;;;;;;;;;;;;;;;;5090957;28;19914;-67
2022/04/30 03:25:03;;;;;;;;;;;;;;;;;;5089870;28;19999;-67
2022/04/30 03:27:31;;;;;;;;;;;;;;;;;;5091124;28;20253;-67
2022/04/30 03:30:45;;;;;;;;;;;;;;;;;;5111457;27;19922;-67
2022/04/30 03:33:23;;;;;;;;;;;;;;;;;;5091453;28;19912;-68
2022/04/30 03:35:49;;;;;;;;;;;;;;;;;;5091287;28;19912;-68
2022/04/30 03:38:44;;;;;;;;;;;;;;;;;;5091031;27;19913;-68
2022/04/30 03:41:29;;;;;;;;;;;;;;;;;;5091878;28;19916;-70
2022/04/30 03:43:55;;;;;;;;;;;;;;;;;;5090887;28;19951;-69
2022/04/30 03:48:41;;;;;;;;;;;;;;;;;;5091302;28;19916;-67
2022/04/30 03:51:08;;;;;;;;;;;;;;;;;;5090875;28;20430;-67
2022/04/30 03:54:58;;;;;;;;;;;;;;;;;;5092169;27;19917;-67
2022/04/30 03:58:13;;;;;;;;;;;;;;;;;;5091565;27;20287;-68
2022/04/30 04:01:22;;;;;;;;;;;;;;;;;;5092197;27;19916;-69
2022/04/30 04:05:23;;;;;;;;;;;;;;;;;;5091336;27;20300;-68
2022/04/30 04:07:49;;;;;;;;;;;;;;;;;;5091548;28;19916;-68
2022/04/30 04:19:35;;;;;;;;;;;;;;;;;;5090836;28;19931;-68
2022/04/30 04:22:03;;;;;;;;;;;;;;;;;;5091185;28;19908;-68
2022/04/30 04:27:14;;;;;;;;;;;;;;;;;;5090700;28;19915;-67
2022/04/30 04:29:40;;;;;;;;;;;;;;;;;;5091027;28;19909;-68
2022/04/30 04:32:06;;;;;;;;;;;;;;;;;;5090975;28;19920;-68
2022/04/30 04:34:32;;;;;;;;;;;;;;;;;;5090770;28;19909;-68
2022/04/30 04:42:38;;;;;;;;;;;;;;;;;;5091421;27;20292;-68
2022/04/30 04:47:27;;;;;;;;;;;;;;;;;;5091622;27;19938;-68
2022/04/30 04:49:53;;;;;;;;;;;;;;;;;;5090139;28;20342;-68
2022/04/30 04:56:21;;;;;;;;;;;;;;;;;;5092009;27;19923;-70
2022/04/30 04:58:47;;;;;;;;;;;;;;;;;;5091347;28;19920;-69
2022/04/30 05:01:13;;;;;;;;;;;;;;;;;;5091392;28;19909;-69
2022/04/30 05:03:39;;;;;;;;;;;;;;;;;;5089973;28;20328;-69
2022/04/30 05:06:05;;;;;;;;;;;;;;;;;;5091428;28;20391;-69
2022/04/30 05:08:31;;;;;;;;;;;;;;;;;;5091103;28;19913;-68
2022/04/30 05:10:57;;;;;;;;;;;;;;;;;;5091405;28;19916;-67
2022/04/30 05:13:23;;;;;;;;;;;;;;;;;;5091627;28;19915;-67
2022/04/30 05:15:49;;;;;;;;;;;;;;;;;;5090600;28;19916;-67
2022/04/30 05:18:51;;;;;;;;;;;;;;;;;;5091533;27;19923;-69
2022/04/30 05:22:53;;;;;;;;;;;;;;;;;;5091443;27;19916;-69
2022/04/30 05:26:48;;;;;;;;;;;;;;;;;;5091768;27;20376;-69
2022/04/30 05:29:36;;;;;;;;;;;;;;;;;;5132431;27;19922;-67
2022/04/30 05:32:02;;;;;;;;;;;;;;;;;;5132190;28;19911;-69
2022/04/30 05:34:28;;;;;;;;;;;;;;;;;;5132233;27;19953;-69
2022/04/30 05:39:56;;;;;;;;;;;;;;;;;;5152888;27;20010;-68
2022/04/30 05:42:22;;;;;;;;;;;;;;;;;;5152910;27;19918;-69
2022/04/30 05:47:19;;;;;;;;;;;;;;;;;;5091556;27;19919;-68
2022/04/30 05:49:59;;;;;;;;;;;;;;;;;;5092066;27;19923;-68
2022/04/30 05:52:25;;;;;;;;;;;;;;;;;;5090943;28;20368;-69
2022/04/30 05:54:51;;;;;;;;;;;;;;;;;;5091362;28;19931;-68
2022/04/30 05:57:17;;;;;;;;;;;;;;;;;;5090837;28;19908;-69
2022/04/30 06:00:37;;;;;;;;;;;;;;;;;;5091488;27;19912;-68
2022/04/30 06:03:03;;;;;;;;;;;;;;;;;;5091364;28;19912;-69
2022/04/30 06:05:29;;;;;;;;;;;;;;;;;;5091152;28;20384;-69
2022/04/30 06:11:43;;;;;;;;;;;;;;;;;;5152777;27;20018;-68
2022/04/30 06:14:09;;;;;;;;;;;;;;;;;;5134340;27;20274;-68
2022/04/30 06:16:35;;;;;;;;;;;;;;;;;;5152868;27;19907;-68
2022/04/30 06:19:01;;;;;;;;;;;;;;;;;;5152407;27;19912;-68
2022/04/30 06:21:27;;;;;;;;;;;;;;;;;;5152691;27;19907;-68
2022/04/30 06:29:12;;;;;;;;;;;;;;;;;;5091528;27;19922;-69
2022/04/30 06:32:30;;;;;;;;;;;;;;;;;;5091502;27;20377;-69
2022/04/30 06:34:56;;;;;;;;;;;;;;;;;;5091356;28;20338;-69
2022/04/30 06:37:22;;;;;;;;;;;;;;;;;;5091282;28;19908;-68
2022/04/30 06:41:23;;;;;;;;;;;;;;;;;;5090929;27;19912;-69
2022/04/30 06:43:52;;;;;;;;;;;;;;;;;;5091287;28;19912;-67
2022/04/30 06:46:18;;;;;;;;;;;;;;;;;;5091837;28;19912;-68
2022/04/30 06:50:32;;;;;;;;;;;;;;;;;;5091928;27;19922;-68
2022/04/30 06:58:17;;;;;;;;;;;;;;;;;;5091342;28;19919;-68
2022/04/30 07:03:23;;;;;;;;;;;;;;;;;;5091522;28;20404;-68
2022/04/30 07:05:49;;;;;;;;;;;;;;;;;;5091137;28;19961;-68
2022/04/30 07:10:10;;;;;;;;;;;;;;;;;;5091329;27;19916;-68
2022/04/30 07:12:36;;;;;;;;;;;;;;;;;;5091274;28;19913;-68
2022/04/30 07:18:00;;;;;;;;;;;;;;;;;;5091317;27;20285;-68
2022/04/30 07:24:23;;;;;;;;;;;;;;;;;;5091485;27;19938;-68
2022/04/30 07:26:49;;;;;;;;;;;;;;;;;;5091458;28;19958;-68
2022/04/30 07:31:05;;;;;;;;;;;;;;;;;;5091351;27;19923;-68
2022/04/30 07:39:09;;;;;;;;;;;;;;;;;;5091761;27;19923;-69
2022/04/30 07:41:35;;;;;;;;;;;;;;;;;;5090014;28;19912;-68
2022/04/30 07:44:01;;;;;;;;;;;;;;;;;;5089534;28;20258;-69
2022/04/30 07:46:27;;;;;;;;;;;;;;;;;;5091194;28;19915;-68
2022/04/30 07:48:53;;;;;;;;;;;;;;;;;;5091227;28;19908;-68
2022/04/30 07:52:32;;;;;;;;;;;;;;;;;;5092203;27;19923;-68
2022/04/30 07:58:18;;;;;;;;;;;;;;;;;;5091072;27;19923;-69
2022/04/30 08:01:05;;;;;;;;;;;;;;;;;;5091574;27;19916;-68
2022/04/30 08:04:14;;;;;;;;;;;;;;;;;;5091002;27;19916;-67
2022/04/30 08:06:40;;;;;;;;;;;;;;;;;;5091277;28;20012;-68
2022/04/30 08:13:07;;;;;;;;;;;;;;;;;;5090972;28;19938;-69
2022/04/30 08:15:33;;;;;;;;;;;;;;;;;;5090040;28;19916;-68
2022/04/30 08:19:13;;;;;;;;;;;;;;;;;;5091076;27;19916;-68
2022/04/30 08:21:39;;;;;;;;;;;;;;;;;;5091348;28;19943;-69
2022/04/30 08:25:01;;;;;;;;;;;;;;;;;;5091002;27;20388;-68
2022/04/30 08:27:27;;;;;;;;;;;;;;;;;;5091354;28;20381;-69
2022/04/30 08:29:53;;;;;;;;;;;;;;;;;;5089942;28;19916;-69
2022/04/30 08:32:19;;;;;;;;;;;;;;;;;;5090987;28;19908;-69
2022/04/30 08:37:10;;;;;;;;;;;;;;;;;;5091540;27;19923;-69
2022/04/30 08:39:36;;;;;;;;;;;;;;;;;;5090886;28;19927;-68
2022/04/30 08:42:02;;;;;;;;;;;;;;;;;;5089903;28;19912;-68
2022/04/30 08:46:10;;;;;;;;;;;;;;;;;;5091047;27;19917;-69
2022/04/30 08:48:36;;;;;;;;;;;;;;;;;;5091348;28;19955;-71
2022/04/30 08:57:03;;;;;;;;;;;;;;;;;;5091888;27;19916;-68
2022/04/30 09:01:51;;;;;;;;;;;;;;;;;;5091167;28;19916;-67
2022/04/30 09:04:17;;;;;;;;;;;;;;;;;;5091327;28;19999;-68
2022/04/30 09:06:44;;;;;;;;;;;;;;;;;;5091328;28;19948;-68
2022/04/30 09:09:10;;;;;;;;;;;;;;;;;;5090886;28;19909;-68
2022/04/30 09:12:09;;;;;;;;;;;;;;;;;;5091569;27;19916;-68
2022/04/30 09:14:35;;;;;;;;;;;;;;;;;;5090864;28;19912;-68
2022/04/30 09:17:02;;;;;;;;;;;;;;;;;;5091206;28;19909;-68
2022/04/30 09:19:28;;;;;;;;;;;;;;;;;;5091279;28;19908;-69
2022/04/30 09:24:33;;;;;;;;;;;;;;;;;;5091665;27;19923;-69
2022/04/30 09:28:12;;;;;;;;;;;;;;;;;;5091217;28;19912;-69
2022/04/30 09:30:38;;;;;;;;;;;;;;;;;;5091365;28;20012;-69
2022/04/30 09:33:04;;;;;;;;;;;;;;;;;;5091602;28;20373;-70
2022/04/30 09:38:15;;;;;;;;;;;;;;;;;;5091225;28;19915;-68
2022/04/30 09:40:41;;;;;;;;;;;;;;;;;;5091131;28;19908;-69
2022/04/30 09:43:07;;;;;;;;;;;;;;;;;;5090775;28;19947;-69
2022/04/30 09:47:20;;;;;;;;;;;;;;;;;;5092112;27;19923;-69
2022/04/30 09:55:16;;;;;;;;;;;;;;;;;;5091238;28;19915;-68
2022/04/30 09:57:42;;;;;;;;;;;;;;;;;;5090713;28;19991;-68
2022/04/30 10:00:08;;;;;;;;;;;;;;;;;;5091428;28;19963;-68
2022/04/30 10:02:35;;;;;;;;;;;;;;;;;;5091028;28;19991;-67
2022/04/30 10:07:33;;;;;;;;;;;;;;;;;;5091307;27;19936;-67
2022/04/30 10:10:00;;;;;;;;;;;;;;;;;;5091207;28;19920;-68
2022/04/30 10:12:26;;;;;;;;;;;;;;;;;;5090818;28;20284;-68
2022/04/30 10:14:52;;;;;;;;;;;;;;;;;;5091177;28;19909;-69
2022/04/30 10:17:23;;;;;;;;;;;;;;;;;;5091732;28;19915;-68
2022/04/30 10:19:49;;;;;;;;;;;;;;;;;;5091297;28;19931;-68
2022/04/30 10:22:15;;;;;;;;;;;;;;;;;;5091142;28;20369;-69
2022/04/30 10:24:42;;;;;;;;;;;;;;;;;;5090574;28;19916;-69
2022/04/30 10:27:08;;;;;;;;;;;;;;;;;;5091108;28;19923;-68
2022/04/30 10:29:34;;;;;;;;;;;;;;;;;;5090956;28;19954;-68
2022/04/30 10:32:00;;;;;;;;;;;;;;;;;;5090466;28;20333;-68
2022/04/30 10:35:32;;;;;;;;;;;;;;;;;;5092042;28;19938;-68
2022/04/30 10:37:58;;;;;;;;;;;;;;;;;;5091296;28;19919;-69
2022/04/30 10:40:24;;;;;;;;;;;;;;;;;;5090699;28;19908;-68
2022/04/30 10:42:50;;;;;;;;;;;;;;;;;;5091138;28;19909;-68
2022/04/30 10:45:16;;;;;;;;;;;;;;;;;;5091159;28;19915;-68
2022/04/30 10:47:42;;;;;;;;;;;;;;;;;;5090530;28;20302;-69
2022/04/30 10:50:08;;;;;;;;;;;;;;;;;;5091618;28;19909;-69
2022/04/30 10:52:34;;;;;;;;;;;;;;;;;;5091015;28;20398;-69
2022/04/30 10:55:00;;;;;;;;;;;;;;;;;;5090948;28;19955;-69
2022/04/30 10:57:26;;;;;;;;;;;;;;;;;;5091305;28;19908;-68
2022/04/30 10:59:52;;;;;;;;;;;;;;;;;;5089178;28;20007;-68
2022/04/30 11:02:18;;;;;;;;;;;;;;;;;;5091262;28;20454;-68
2022/04/30 11:04:44;;;;;;;;;;;;;;;;;;5090808;28;19909;-68
2022/04/30 11:07:10;;;;;;;;;;;;;;;;;;5090308;28;20303;-69
2022/04/30 11:12:01;;;;;;;;;;;;;;;;;;5152992;27;20368;-69
2022/04/30 11:16:10;;;;;;;;;;;;;;;;;;5091589;27;19916;-70
2022/04/30 11:18:36;;;;;;;;;;;;;;;;;;5091149;28;19944;-69
2022/04/30 11:21:02;;;;;;;;;;;;;;;;;;5090815;28;19915;-68
2022/04/30 11:23:28;;;;;;;;;;;;;;;;;;5091668;28;19908;-69
2022/04/30 11:25:54;;;;;;;;;;;;;;;;;;5091178;28;19909;-68
2022/04/30 11:28:20;;;;;;;;;;;;;;;;;;5090758;28;19966;-69
2022/04/30 11:31:31;;;;;;;;;;;;;;;;;;5173804;27;19922;-68
2022/04/30 11:33:57;;;;;;;;;;;;;;;;;;5173736;27;19911;-69
2022/04/30 11:36:23;;;;;;;;;;;;;;;;;;5154556;27;19907;-69
2022/04/30 11:38:49;;;;;;;;;;;;;;;;;;5173590;27;20325;-69
2022/04/30 11:41:15;;;;;;;;;;;;;;;;;;5173987;27;19911;-69
2022/04/30 11:43:41;;;;;;;;;;;;;;;;;;5173147;27;19911;-67
2022/04/30 11:46:07;;;;;;;;;;;;;;;;;;5173462;27;19914;-68
2022/04/30 11:48:33;;;;;;;;;;;;;;;;;;5173856;27;19907;-70
2022/04/30 11:53:25;;;;;;;;;;;;;;;;;;5153471;27;20018;-72
2022/04/30 11:55:50;;;;;;;;;;;;;;;;;;5152918;27;19912;-69
2022/04/30 11:58:16;;;;;;;;;;;;;;;;;;5152435;27;19908;-71
2022/04/30 12:00:42;;;;;;;;;;;;;;;;;;5153039;27;20343;-71
2022/04/30 12:03:09;;;;;;;;;;;;;;;;;;5152833;27;19952;-71
2022/04/30 12:07:45;;;;;;;;;;;;;;;;;;5091440;27;19916;-69
2022/04/30 12:10:11;;;;;;;;;;;;;;;;;;5091001;28;19919;-69
2022/04/30 12:12:37;;;;;;;;;;;;;;;;;;5091257;28;19995;-69
2022/04/30 12:15:03;;;;;;;;;;;;;;;;;;5089913;28;20299;-69
2022/04/30 12:17:29;;;;;;;;;;;;;;;;;;5090720;28;19908;-68
2022/04/30 12:25:24;;;;;;;;;;;;;;;;;;5090681;28;19919;-69
2022/04/30 12:27:50;;;;;;;;;;;;;;;;;;5090898;28;20326;-71
2022/04/30 12:30:16;;;;;;;;;;;;;;;;;;5091433;28;20420;-69
2022/04/30 12:32:42;;;;;;;;;;;;;;;;;;5089286;28;19908;-68
2022/04/30 12:35:08;;;;;;;;;;;;;;;;;;5090848;28;20379;-68
2022/04/30 12:37:34;;;;;;;;;;;;;;;;;;5090800;28;19912;-69
2022/04/30 12:40:00;;;;;;;;;;;;;;;;;;5090371;28;19908;-68
2022/04/30 12:42:26;;;;;;;;;;;;;;;;;;5090710;28;19944;-69
2022/04/30 12:44:52;;;;;;;;;;;;;;;;;;5091010;28;19908;-70
2022/04/30 12:47:19;;;;;;;;;;;;;;;;;;5090121;28;20011;-69
2022/04/30 12:49:45;;;;;;;;;;;;;;;;;;5089283;28;20368;-67
2022/04/30 12:52:11;;;;;;;;;;;;;;;;;;5090465;28;19919;-69
2022/04/30 12:54:37;;;;;;;;;;;;;;;;;;5090592;28;19913;-69
2022/04/30 12:57:07;;;;;;;;;;;;;;;;;;5089215;28;19908;-69
2022/04/30 12:59:33;;;;;;;;;;;;;;;;;;5090116;28;19912;-69
2022/04/30 13:01:59;;;;;;;;;;;;;;;;;;5089090;28;19961;-68
2022/04/30 13:04:25;;;;;;;;;;;;;;;;;;5090359;28;19913;-69
2022/04/30 13:06:51;;;;;;;;;;;;;;;;;;5102844;28;20364;-68
2022/04/30 13:14:46;;;;;;;;;;;;;;;;;;5110246;28;19923;-70
2022/04/30 13:17:12;;;;;;;;;;;;;;;;;;5107421;28;19908;-69
2022/04/30 13:19:41;;;;;;;;;;;;;;;;;;5096834;28;19950;-69
2022/04/30 13:22:07;;;;;;;;;;;;;;;;;;5096315;28;19908;-69
2022/04/30 13:24:36;;;;;;;;;;;;;;;;;;5096712;28;19915;-68
2022/04/30 13:27:02;;;;;;;;;;;;;;;;;;5097005;28;19916;-68
2022/04/30 13:29:28;;;;;;;;;;;;;;;;;;5096211;28;19908;-69
2022/04/30 13:31:54;;;;;;;;;;;;;;;;;;5096521;28;19909;-69
2022/04/30 13:34:21;;;;;;;;;;;;;;;;;;5096475;28;20375;-70
2022/04/30 13:36:48;;;;;;;;;;;;;;;;;;5096309;28;19955;-68
2022/04/30 13:39:14;;;;;;;;;;;;;;;;;;5096804;28;19908;-69
2022/04/30 13:41:40;;;;;;;;;;;;;;;;;;5096043;28;19908;-70
2022/04/30 13:44:09;;;;;;;;;;;;;;;;;;5096304;28;19908;-69
2022/04/30 13:46:35;;;;;;;;;;;;;;;;;;5096031;28;19922;-69
2022/04/30 13:49:01;;;;;;;;;;;;;;;;;;5095757;28;19908;-69
2022/04/30 13:51:27;;;;;;;;;;;;;;;;;;5096259;28;19908;-68
2022/04/30 13:53:53;;;;;;;;;;;;;;;;;;5096009;28;19908;-69
2022/04/30 13:56:19;;;;;;;;;;;;;;;;;;5095613;28;20276;-69
2022/04/30 13:58:45;;;;;;;;;;;;;;;;;;5096186;28;19937;-69
2022/04/30 14:01:12;;;;;;;;;;;;;;;;;;5096126;28;19908;-70
2022/04/30 14:03:38;;;;;;;;;;;;;;;;;;5077359;28;19954;-69
2022/04/30 14:06:04;;;;;;;;;;;;;;;;;;5096009;28;20490;-70
2022/04/30 14:08:30;;;;;;;;;;;;;;;;;;5095978;28;19912;-72
2022/04/30 14:10:56;;;;;;;;;;;;;;;;;;5095497;28;20042;-70
2022/04/30 14:16:07;;;;;;;;;;;;;;;;;;5095680;28;19953;-71
2022/04/30 14:18:34;;;;;;;;;;;;;;;;;;5095314;28;20017;-71
2022/04/30 14:21:03;;;;;;;;;;;;;;;;;;5095653;28;19908;-71
2022/04/30 14:23:30;;;;;;;;;;;;;;;;;;5077389;28;20258;-71
2022/04/30 14:25:56;;;;;;;;;;;;;;;;;;5095111;28;19916;-72
2022/04/30 14:28:23;;;;;;;;;;;;;;;;;;5095723;28;19991;-69
2022/04/30 14:30:49;;;;;;;;;;;;;;;;;;5094160;28;19908;-69
2022/04/30 14:33:15;;;;;;;;;;;;;;;;;;5095408;28;20396;-69
2022/04/30 14:35:41;;;;;;;;;;;;;;;;;;5077499;28;19934;-70
2022/04/30 14:38:11;;;;;;;;;;;;;;;;;;5094918;28;19908;-71
2022/04/30 14:40:39;;;;;;;;;;;;;;;;;;5077070;28;20348;-71
2022/04/30 14:43:05;;;;;;;;;;;;;;;;;;5095183;28;19912;-71
2022/04/30 14:45:31;;;;;;;;;;;;;;;;;;5094711;28;19908;-70
2022/04/30 14:47:57;;;;;;;;;;;;;;;;;;5095140;28;20285;-71
2022/04/30 14:50:23;;;;;;;;;;;;;;;;;;5095121;28;19943;-70
2022/04/30 14:52:49;;;;;;;;;;;;;;;;;;5094579;28;19908;-72
2022/04/30 14:55:14;;;;;;;;;;;;;;;;;;5094984;28;19912;-71
2022/04/30 14:57:40;;;;;;;;;;;;;;;;;;5095175;28;19908;-70
2022/04/30 15:00:06;;;;;;;;;;;;;;;;;;5076102;28;20378;-69
2022/04/30 15:02:32;;;;;;;;;;;;;;;;;;5094770;28;19909;-69
2022/04/30 15:04:58;;;;;;;;;;;;;;;;;;5094958;28;20280;-69
2022/04/30 15:07:24;;;;;;;;;;;;;;;;;;5094120;28;20013;-68
2022/04/30 15:09:50;;;;;;;;;;;;;;;;;;5095168;28;19961;-68
2022/04/30 15:12:16;;;;;;;;;;;;;;;;;;5094647;28;19994;-68
2022/04/30 15:14:42;;;;;;;;;;;;;;;;;;5094184;28;19961;-68
2022/04/30 15:17:12;;;;;;;;;;;;;;;;;;5094626;28;19998;-69
2022/04/30 15:19:38;;;;;;;;;;;;;;;;;;5094772;28;19908;-69
2022/04/30 15:22:04;;;;;;;;;;;;;;;;;;5094030;28;19912;-69
2022/04/30 15:24:30;;;;;;;;;;;;;;;;;;5094349;28;20451;-68
2022/04/30 15:26:56;;;;;;;;;;;;;;;;;;5094503;28;19916;-69
2022/04/30 15:29:27;;;;;;;;;;;;;;;;;;5094335;28;20272;-68
2022/04/30 15:31:53;;;;;;;;;;;;;;;;;;5094586;28;19915;-69
2022/04/30 15:34:19;;;;;;;;;;;;;;;;;;5094005;28;19961;-69
2022/04/30 15:36:45;;;;;;;;;;;;;;;;;;5094201;28;19909;-69
2022/04/30 15:39:11;;;;;;;;;;;;;;;;;;5076129;28;19908;-70
2022/04/30 15:41:38;;;;;;;;;;;;;;;;;;5093589;28;20466;-69
2022/04/30 15:44:04;;;;;;;;;;;;;;;;;;5094308;28;19908;-69
2022/04/30 15:51:59;;;;;;;;;;;;;;;;;;5094151;28;19974;-70
2022/04/30 15:54:25;;;;;;;;;;;;;;;;;;5094345;28;19916;-69
2022/04/30 15:56:51;;;;;;;;;;;;;;;;;;5093476;28;19909;-70
2022/04/30 15:59:18;;;;;;;;;;;;;;;;;;5094021;28;19915;-70
2022/04/30 16:01:44;;;;;;;;;;;;;;;;;;5094203;28;19928;-68
2022/04/30 16:04:10;;;;;;;;;;;;;;;;;;5093657;28;19999;-68
2022/04/30 16:06:36;;;;;;;;;;;;;;;;;;5093616;28;19935;-69
2022/04/30 16:09:02;;;;;;;;;;;;;;;;;;5093912;28;19909;-67
2022/04/30 16:11:34;;;;;;;;;;;;;;;;;;5093350;28;19908;-68
2022/04/30 16:14:00;;;;;;;;;;;;;;;;;;5094037;28;20006;-69
2022/04/30 16:16:27;;;;;;;;;;;;;;;;;;5093572;28;20368;-69
2022/04/30 16:18:53;;;;;;;;;;;;;;;;;;5094116;28;19953;-68
2022/04/30 16:21:19;;;;;;;;;;;;;;;;;;5075676;28;20383;-69
2022/04/30 16:23:45;;;;;;;;;;;;;;;;;;5093295;28;19908;-67
2022/04/30 16:26:12;;;;;;;;;;;;;;;;;;5093616;28;19916;-68
2022/04/30 16:28:38;;;;;;;;;;;;;;;;;;5093923;28;19912;-68
2022/04/30 16:31:04;;;;;;;;;;;;;;;;;;5093504;28;20000;-69
2022/04/30 16:33:31;;;;;;;;;;;;;;;;;;5093707;28;19914;-68
2022/04/30 16:35:56;;;;;;;;;;;;;;;;;;5075477;28;19909;-69
2022/04/30 16:38:22;;;;;;;;;;;;;;;;;;5093213;28;20386;-69
2022/04/30 16:40:49;;;;;;;;;;;;;;;;;;5075320;28;19916;-69
2022/04/30 16:43:15;;;;;;;;;;;;;;;;;;5093542;28;19931;-68
2022/04/30 16:46:33;;;;;;;;;;;;;;;;;;5090931;27;19916;-69
2022/04/30 16:49:00;;;;;;;;;;;;;;;;;;5091319;28;19912;-69
2022/04/30 16:54:11;;;;;;;;;;;;;;;;;;5091262;28;19969;-68
2022/04/30 16:59:21;;;;;;;;;;;;;;;;;;5090795;28;19920;-68
2022/04/30 17:01:47;;;;;;;;;;;;;;;;;;5091095;28;19909;-69
2022/04/30 17:07:03;;;;;;;;;;;;;;;;;;5091197;27;19916;-69
2022/04/30 17:10:13;;;;;;;;;;;;;;;;;;5112309;27;19915;-68
2022/04/30 17:12:39;;;;;;;;;;;;;;;;;;5111337;28;19946;-70
2022/04/30 17:15:05;;;;;;;;;;;;;;;;;;5111598;28;19947;-70
2022/04/30 17:17:31;;;;;;;;;;;;;;;;;;5111695;28;20340;-71
2022/04/30 17:19:57;;;;;;;;;;;;;;;;;;5111159;28;19908;-69
2022/04/30 17:22:23;;;;;;;;;;;;;;;;;;5111813;28;19908;-68
2022/04/30 17:28:39;;;;;;;;;;;;;;;;;;5090965;27;19916;-70
2022/04/30 17:39:20;;;;;;;;;;;;;;;;;;5091294;28;19920;-68
2022/04/30 17:41:46;;;;;;;;;;;;;;;;;;5090815;28;19915;-69
2022/04/30 17:48:13;;;;;;;;;;;;;;;;;;5111714;27;20007;-68
2022/04/30 17:51:42;;;;;;;;;;;;;;;;;;5091521;28;20385;-69
2022/04/30 17:54:08;;;;;;;;;;;;;;;;;;5091362;28;19926;-69
2022/04/30 17:56:34;;;;;;;;;;;;;;;;;;5090890;28;19908;-69
2022/04/30 17:59:00;;;;;;;;;;;;;;;;;;5091560;28;19909;-69
2022/04/30 18:01:27;;;;;;;;;;;;;;;;;;5091202;28;19953;-69
2022/04/30 18:05:52;;;;;;;;;;;;;;;;;;5091343;27;20300;-69
2022/04/30 18:08:18;;;;;;;;;;;;;;;;;;5090034;28;19912;-69
2022/04/30 18:14:14;;;;;;;;;;;;;;;;;;5153111;27;19998;-68
2022/04/30 18:16:40;;;;;;;;;;;;;;;;;;5152513;27;20279;-70
2022/04/30 18:19:06;;;;;;;;;;;;;;;;;;5152861;27;19914;-70
2022/04/30 18:21:33;;;;;;;;;;;;;;;;;;5152791;27;19915;-69
2022/04/30 18:23:59;;;;;;;;;;;;;;;;;;5152581;27;20303;-69
2022/04/30 18:26:25;;;;;;;;;;;;;;;;;;5152713;27;19907;-69
2022/04/30 18:28:52;;;;;;;;;;;;;;;;;;5152626;27;19907;-70
2022/04/30 18:33:49;;;;;;;;;;;;;;;;;;5153124;27;20014;-69
2022/04/30 18:41:22;;;;;;;;;;;;;;;;;;5091702;27;19938;-69
2022/04/30 18:43:49;;;;;;;;;;;;;;;;;;5091572;28;20356;-69
2022/04/30 18:47:51;;;;;;;;;;;;;;;;;;5091493;27;19923;-69
2022/04/30 19:03:58;;;;;;;;;;;;;;;;;;5091995;27;19917;-69
2022/04/30 19:06:24;;;;;;;;;;;;;;;;;;5091257;28;20249;-69
2022/04/30 19:08:50;;;;;;;;;;;;;;;;;;5091367;28;19908;-69
2022/04/30 19:11:17;;;;;;;;;;;;;;;;;;5091389;28;19908;-69
2022/04/30 19:13:43;;;;;;;;;;;;;;;;;;5090894;28;19908;-69
2022/04/30 19:16:09;;;;;;;;;;;;;;;;;;5091196;28;20261;-69
2022/04/30 19:18:35;;;;;;;;;;;;;;;;;;5091153;28;19915;-69
2022/04/30 19:23:26;;;;;;;;;;;;;;;;;;5091673;27;19913;-69
2022/04/30 19:27:13;;;;;;;;;;;;;;;;;;5091005;27;19916;-69
2022/04/30 19:29:39;;;;;;;;;;;;;;;;;;5090065;28;20004;-70
2022/04/30 19:32:06;;;;;;;;;;;;;;;;;;5091562;28;19957;-69
2022/04/30 19:36:57;;;;;;;;;;;;;;;;;;5092245;27;19916;-70
2022/04/30 19:39:23;;;;;;;;;;;;;;;;;;5091309;28;20007;-69
2022/04/30 19:41:49;;;;;;;;;;;;;;;;;;5090875;28;19995;-70
2022/04/30 19:46:43;;;;;;;;;;;;;;;;;;5091912;27;19919;-69
2022/04/30 19:49:09;;;;;;;;;;;;;;;;;;5090947;28;19919;-69
2022/04/30 19:51:35;;;;;;;;;;;;;;;;;;5091222;28;19995;-69
2022/04/30 19:54:01;;;;;;;;;;;;;;;;;;5091239;28;19918;-70
2022/04/30 20:00:48;;;;;;;;;;;;;;;;;;5092225;27;19923;-69
2022/04/30 20:04:33;;;;;;;;;;;;;;;;;;5091873;28;20288;-69
2022/04/30 20:06:59;;;;;;;;;;;;;;;;;;5091530;28;20403;-69
2022/04/30 20:09:27;;;;;;;;;;;;;;;;;;5090859;28;20365;-70
2022/04/30 20:18:59;;;;;;;;;;;;;;;;;;5092156;27;19923;-67
2022/04/30 20:29:41;;;;;;;;;;;;;;;;;;5091159;27;20410;-69
2022/04/30 20:39:26;;;;;;;;;;;;;;;;;;5091341;27;19917;-69
2022/04/30 20:42:29;;;;;;;;;;;;;;;;;;5152939;27;19994;-69
2022/04/30 20:44:55;;;;;;;;;;;;;;;;;;5152631;27;20374;-69
2022/04/30 20:47:21;;;;;;;;;;;;;;;;;;5152694;27;19912;-68
2022/04/30 20:51:46;;;;;;;;;;;;;;;;;;5091043;27;19917;-69
2022/04/30 20:54:12;;;;;;;;;;;;;;;;;;5091204;28;19951;-69
2022/04/30 20:56:41;;;;;;;;;;;;;;;;;;5091244;28;19915;-69
2022/04/30 20:59:09;;;;;;;;;;;;;;;;;;5091071;28;20013;-69
2022/04/30 21:03:23;;;;;;;;;;;;;;;;;;5092158;27;20357;-69
2022/04/30 21:05:50;;;;;;;;;;;;;;;;;;5091076;28;19920;-69
2022/04/30 21:08:17;;;;;;;;;;;;;;;;;;5091371;28;19939;-70
2022/04/30 21:11:15;;;;;;;;;;;;;;;;;;5091687;28;19917;-68
2022/04/30 21:13:41;;;;;;;;;;;;;;;;;;5090939;28;19919;-68
2022/04/30 21:18:21;;;;;;;;;;;;;;;;;;5091857;28;19916;-69
2022/04/30 21:20:47;;;;;;;;;;;;;;;;;;5090945;28;20003;-69
2022/04/30 21:23:13;;;;;;;;;;;;;;;;;;5091342;28;19939;-69
2022/04/30 21:27:24;;;;;;;;;;;;;;;;;;5091047;27;19916;-69
2022/04/30 21:31:19;;;;;;;;;;;;;;;;;;5153532;27;20010;-69
2022/04/30 21:34:58;;;;;;;;;;;;;;;;;;5131943;27;20019;-69
2022/04/30 21:37:24;;;;;;;;;;;;;;;;;;5132807;28;19918;-69
2022/04/30 21:39:50;;;;;;;;;;;;;;;;;;5131748;28;20003;-69
2022/04/30 21:44:03;;;;;;;;;;;;;;;;;;5091891;28;19939;-69
2022/04/30 21:46:29;;;;;;;;;;;;;;;;;;5091602;28;20428;-69
2022/04/30 21:48:55;;;;;;;;;;;;;;;;;;5090893;28;19936;-69
2022/04/30 21:53:57;;;;;;;;;;;;;;;;;;5091395;27;19923;-69
2022/04/30 22:01:34;;;;;;;;;;;;;;;;;;5111806;27;20396;-69
2022/04/30 22:04:00;;;;;;;;;;;;;;;;;;5111760;28;19957;-69
2022/04/30 22:08:25;;;;;;;;;;;;;;;;;;5091405;27;19917;-69
2022/04/30 22:10:54;;;;;;;;;;;;;;;;;;5091412;28;19913;-69
2022/04/30 22:15:03;;;;;;;;;;;;;;;;;;5091238;27;19917;-69
2022/04/30 22:18:17;;;;;;;;;;;;;;;;;;5091611;27;19917;-69